Time;durP1;ratioP1;P1;durP2;ratioP2;P2;SDS_P1;SDS_P2;PMS_P1;PMS_P2;Temp;Humidity;BMP_temperature;BMP_pressure;BME280_temperature;BME280_humidity;BME280_pressure;Samples;Min_cycle;Max_cycle;Signal;HPM_P1;HPM_P2
2021/05/23 00:01:01;;;;;;;1.97;1.50;;;13.50;57.60;;;;;;5078122;28;20643;-87
2021/05/23 00:03:28;;;;;;;1.10;1.10;;;13.50;57.30;;;;;;5077917;28;20633;-88
2021/05/23 00:05:55;;;;;;;1.70;1.33;;;13.50;56.70;;;;;;5074922;28;20663;-87
2021/05/23 00:08:23;;;;;;;3.63;1.50;;;13.50;56.80;;;;;;5075943;28;20622;-87
2021/05/23 00:10:53;;;;;;;3.50;1.57;;;13.50;57.20;;;;;;5083245;28;20621;-88
2021/05/23 00:13:22;;;;;;;1.57;1.30;;;13.40;57.70;;;;;;5072997;28;20652;-87
2021/05/23 00:15:53;;;;;;;1.83;1.43;;;13.40;58.20;;;;;;5080874;28;20631;-87
2021/05/23 00:18:23;;;;;;;1.33;1.13;;;13.40;57.90;;;;;;5082807;28;20653;-88
2021/05/23 00:20:50;;;;;;;2.00;1.23;;;13.50;57.40;;;;;;5087723;28;20781;-87
2021/05/23 00:23:18;;;;;;;1.33;1.23;;;13.50;57.20;;;;;;5088321;28;20656;-88
2021/05/23 00:25:45;;;;;;;1.40;1.30;;;13.50;57.50;;;;;;5085723;28;20618;-87
2021/05/23 00:28:13;;;;;;;1.33;1.23;;;13.60;57.30;;;;;;5072642;28;20613;-86
2021/05/23 00:30:40;;;;;;;2.00;1.30;;;13.50;57.60;;;;;;5093917;28;20608;-86
2021/05/23 00:33:08;;;;;;;2.27;0.97;;;13.50;57.50;;;;;;5082930;28;20704;-88
2021/05/23 00:35:36;;;;;;;1.43;1.33;;;13.50;57.90;;;;;;5076856;28;20628;-87
2021/05/23 00:38:04;;;;;;;1.33;1.23;;;13.40;57.70;;;;;;5090055;28;21222;-88
2021/05/23 00:40:31;;;;;;;1.10;1.10;;;13.50;57.80;;;;;;5087094;28;20628;-87
2021/05/23 00:42:58;;;;;;;2.13;1.47;;;13.50;57.90;;;;;;5070046;28;20621;-88
2021/05/23 00:45:25;;;;;;;1.40;1.30;;;13.50;57.80;;;;;;5074352;28;21178;-88
2021/05/23 00:47:52;;;;;;;4.00;1.60;;;13.50;58.40;;;;;;5073622;28;20675;-87
2021/05/23 00:50:21;;;;;;;1.30;1.20;;;13.40;57.70;;;;;;5090347;28;20629;-88
2021/05/23 00:52:49;;;;;;;1.10;1.00;;;13.30;58.10;;;;;;5086250;28;21237;-87
2021/05/23 00:55:16;;;;;;;2.20;1.70;;;13.30;58.50;;;;;;5089950;28;20629;-88
2021/05/23 00:57:45;;;;;;;4.70;1.07;;;13.40;58.60;;;;;;5076641;28;20632;-88
2021/05/23 01:00:13;;;;;;;1.47;1.37;;;13.20;58.40;;;;;;5091599;28;20612;-88
2021/05/23 01:02:44;;;;;;;1.37;1.20;;;13.20;59.00;;;;;;5075806;28;20633;-87
2021/05/23 01:05:14;;;;;;;1.53;1.10;;;12.70;58.80;;;;;;5078800;28;21031;-88
2021/05/23 01:07:43;;;;;;;1.80;1.20;;;12.70;59.30;;;;;;5082682;28;20630;-87
2021/05/23 01:10:15;;;;;;;1.93;0.97;;;12.80;59.80;;;;;;5081806;28;20620;-88
2021/05/23 01:13:32;;;;;;;2.20;1.27;;;12.80;59.80;;;;;;5080136;28;20659;-88
2021/05/23 01:16:03;;;;;;;0.97;0.70;;;12.90;60.60;;;;;;5088262;28;20636;-87
2021/05/23 01:18:49;;;;;;;2.00;1.10;;;12.80;63.60;;;;;;5085085;28;21185;-87
2021/05/23 01:21:21;;;;;;;0.90;0.90;;;13.00;65.20;;;;;;5079674;28;21203;-86
2021/05/23 01:23:53;;;;;;;2.50;1.00;;;12.90;65.00;;;;;;5083223;28;20648;-87
2021/05/23 01:26:25;;;;;;;1.73;1.00;;;12.80;63.80;;;;;;5093563;28;21203;-87
2021/05/23 01:28:57;;;;;;;1.37;1.10;;;12.90;65.10;;;;;;5081987;28;20725;-88
2021/05/23 01:31:29;;;;;;;1.10;1.00;;;12.90;65.20;;;;;;5080523;28;20627;-87
2021/05/23 01:33:58;;;;;;;1.63;0.97;;;13.00;64.20;;;;;;5080406;28;20623;-88
2021/05/23 01:36:29;;;;;;;1.63;1.30;;;12.90;63.40;;;;;;5078284;28;20653;-88
2021/05/23 01:38:59;;;;;;;1.23;0.80;;;12.80;63.80;;;;;;5086513;28;20616;-88
2021/05/23 01:41:30;;;;;;;1.43;1.07;;;12.80;63.40;;;;;;5074306;28;20625;-88
2021/05/23 01:44:04;;;;;;;3.53;1.13;;;12.70;62.90;;;;;;5084691;28;20627;-87
2021/05/23 01:46:40;;;;;;;1.30;1.20;;;12.50;63.10;;;;;;5075532;28;20617;-88
2021/05/23 01:49:17;;;;;;;0.80;0.80;;;12.50;64.60;;;;;;5071917;28;20625;-89
2021/05/23 01:51:54;;;;;;;1.00;0.90;;;12.60;63.90;;;;;;5078769;28;20759;-88
2021/05/23 01:54:29;;;;;;;1.30;1.00;;;12.60;64.00;;;;;;5089785;28;21221;-87
2021/05/23 01:56:58;;;;;;;2.30;1.00;;;12.50;63.70;;;;;;5080724;28;20686;-88
2021/05/23 01:59:25;;;;;;;3.37;1.30;;;12.40;63.70;;;;;;5089569;28;20624;-88
2021/05/23 02:01:52;;;;;;;1.80;1.13;;;12.50;63.70;;;;;;5087857;28;20628;-87
2021/05/23 02:04:22;;;;;;;3.03;1.30;;;12.60;64.30;;;;;;5091901;28;21200;-88
2021/05/23 02:06:51;;;;;;;2.50;1.27;;;12.60;64.20;;;;;;5072037;28;21010;-88
2021/05/23 02:09:19;;;;;;;1.43;1.10;;;12.60;63.80;;;;;;5071179;28;21046;-88
2021/05/23 02:11:54;;;;;;;1.23;0.97;;;12.60;64.30;;;;;;5078738;28;20665;-88
2021/05/23 02:14:23;;;;;;;1.20;1.10;;;12.60;64.60;;;;;;5071230;28;20717;-87
2021/05/23 02:16:54;;;;;;;0.80;0.80;;;12.50;64.90;;;;;;5075047;28;20633;-88
2021/05/23 02:19:22;;;;;;;1.37;1.27;;;12.60;65.50;;;;;;5077794;28;20660;-88
2021/05/23 02:21:50;;;;;;;1.23;1.10;;;12.50;66.50;;;;;;5071037;28;20644;-87
2021/05/23 02:24:19;;;;;;;0.80;0.80;;;12.50;65.50;;;;;;5088901;28;21274;-88
2021/05/23 02:26:46;;;;;;;1.00;0.90;;;12.30;66.00;;;;;;5075002;28;20724;-88
2021/05/23 02:29:15;;;;;;;2.93;1.10;;;11.80;68.70;;;;;;5077928;28;20621;-87
2021/05/23 02:31:44;;;;;;;1.03;0.90;;;11.70;74.50;;;;;;5091973;28;20711;-87
2021/05/23 02:34:11;;;;;;;1.83;0.67;;;11.50;78.70;;;;;;5077930;28;20626;-84
2021/05/23 02:36:40;;;;;;;1.33;1.00;;;11.00;82.30;;;;;;5090345;28;20625;-86
2021/05/23 02:39:10;;;;;;;1.88;1.10;;;10.70;90.10;;;;;;5072216;28;20724;-86
2021/05/23 02:41:39;;;;;;;6.60;1.20;;;10.50;92.10;;;;;;5072124;28;20214;-86
2021/05/23 02:44:06;;;;;;;0.80;0.70;;;10.20;93.20;;;;;;5073081;28;20195;-86
2021/05/23 02:46:33;;;;;;;2.50;0.70;;;10.00;95.30;;;;;;5086932;28;20539;-86
2021/05/23 02:49:00;;;;;;;1.38;0.60;;;9.80;96.30;;;;;;5084572;28;20663;-85
2021/05/23 02:51:27;;;;;;;0.60;0.55;;;9.70;96.20;;;;;;5083849;28;20675;-85
2021/05/23 02:53:53;;;;;;;1.40;0.70;;;9.50;96.90;;;;;;5079641;28;20226;-85
2021/05/23 02:56:19;;;;;;;2.25;0.90;;;9.60;98.60;;;;;;5088720;28;20202;-86
2021/05/23 02:58:46;;;;;;;0.60;0.60;;;9.70;98.70;;;;;;5089230;28;20626;-85
2021/05/23 03:01:12;;;;;;;0.60;0.50;;;9.80;99.00;;;;;;5079206;28;20618;-85
2021/05/23 03:03:40;;;;;;;1.65;0.70;;;9.80;98.40;;;;;;5076675;28;20198;-85
2021/05/23 03:06:09;;;;;;;0.45;0.45;;;9.70;98.40;;;;;;5079733;28;20642;-85
2021/05/23 03:08:38;;;;;;;0.82;0.80;;;9.60;98.50;;;;;;5088597;28;20715;-85
2021/05/23 03:11:05;;;;;;;1.50;0.52;;;9.60;99.30;;;;;;5083010;28;20200;-85
2021/05/23 03:13:31;;;;;;;0.73;0.60;;;9.80;99.70;;;;;;5089319;28;20226;-85
2021/05/23 03:16:00;;;;;;;4.13;0.70;;;9.80;99.90;;;;;;5079629;28;20195;-86
2021/05/23 03:18:28;;;;;;;1.20;0.73;;;9.90;99.90;;;;;;5070628;28;20199;-85
2021/05/23 03:20:56;;;;;;;1.50;0.80;;;9.80;99.50;;;;;;5070893;28;20528;-85
2021/05/23 03:23:24;;;;;;;0.85;0.80;;;9.80;99.90;;;;;;5081316;28;20207;-86
2021/05/23 03:25:51;;;;;;;0.70;0.70;;;9.90;99.90;;;;;;5080289;28;20585;-85
2021/05/23 03:28:21;;;;;;;0.70;0.70;;;10.00;99.90;;;;;;5072916;28;20776;-86
2021/05/23 03:30:48;;;;;;;1.50;0.63;;;10.10;99.70;;;;;;5088332;28;20644;-85
2021/05/23 03:33:16;;;;;;;0.55;0.50;;;10.10;99.90;;;;;;5085417;28;20613;-87
2021/05/23 03:35:43;;;;;;;0.57;0.57;;;10.10;99.50;;;;;;5075849;28;20245;-84
2021/05/23 03:38:13;;;;;;;0.55;0.55;;;10.10;99.90;;;;;;5081143;28;20210;-84
2021/05/23 03:40:42;;;;;;;0.60;0.60;;;10.20;99.90;;;;;;5069717;28;20226;-83
2021/05/23 03:43:17;;;;;;;0.80;0.40;;;10.30;99.90;;;;;;5090202;28;20198;-84
2021/05/23 03:45:45;;;;;;;1.73;1.02;;;10.20;99.30;;;;;;5087648;28;20187;-84
2021/05/23 03:48:14;;;;;;;1.30;0.60;;;10.20;99.20;;;;;;5083496;28;20257;-84
2021/05/23 03:50:44;;;;;;;0.93;0.57;;;10.10;99.30;;;;;;5072573;28;20218;-85
2021/05/23 03:53:12;;;;;;;1.70;0.90;;;10.30;99.60;;;;;;5071473;28;20207;-85
2021/05/23 03:55:42;;;;;;;1.30;0.60;;;10.40;99.90;;;;;;5084735;28;20207;-85
2021/05/23 03:58:11;;;;;;;1.25;0.57;;;10.40;99.70;;;;;;5071326;28;20661;-85
2021/05/23 04:00:39;;;;;;;1.63;0.70;;;10.30;99.20;;;;;;5072916;28;20195;-85
2021/05/23 04:03:06;;;;;;;0.60;0.60;;;10.40;98.70;;;;;;5090236;28;20668;-85
2021/05/23 04:05:35;;;;;;;0.80;0.80;;;10.50;98.80;;;;;;5084924;28;20248;-85
2021/05/23 04:08:03;;;;;;;0.80;0.80;;;10.40;99.00;;;;;;5076374;28;20190;-85
2021/05/23 04:10:36;;;;;;;0.70;0.70;;;10.40;98.80;;;;;;5084244;28;20231;-85
2021/05/23 04:13:07;;;;;;;0.65;0.65;;;10.40;99.00;;;;;;5086145;28;20220;-86
2021/05/23 04:15:35;;;;;;;0.93;0.70;;;10.40;99.10;;;;;;5081191;28;20294;-86
2021/05/23 04:18:06;;;;;;;0.70;0.70;;;10.50;98.30;;;;;;5073308;28;20199;-85
2021/05/23 04:20:34;;;;;;;1.50;0.70;;;10.60;98.50;;;;;;5092015;28;20252;-86
2021/05/23 04:23:02;;;;;;;0.95;0.70;;;10.60;98.70;;;;;;5073734;28;20206;-86
2021/05/23 04:25:30;;;;;;;0.60;0.60;;;10.40;98.90;;;;;;5077648;28;20194;-86
2021/05/23 04:27:57;;;;;;;0.50;0.50;;;10.40;99.50;;;;;;5090261;28;20192;-87
2021/05/23 04:30:28;;;;;;;0.80;0.65;;;10.60;99.00;;;;;;5079419;28;20190;-85
2021/05/23 04:32:57;;;;;;;0.70;0.70;;;10.60;98.40;;;;;;5073964;28;20272;-87
2021/05/23 04:35:25;;;;;;;0.73;0.73;;;10.40;98.10;;;;;;5079290;28;20233;-86
2021/05/23 04:37:54;;;;;;;0.80;0.80;;;10.30;98.10;;;;;;5074684;28;20210;-86
2021/05/23 04:40:21;;;;;;;1.30;0.73;;;10.40;98.50;;;;;;5072320;28;20270;-86
2021/05/23 04:42:48;;;;;;;1.35;1.25;;;10.40;98.50;;;;;;5089660;28;20198;-86
2021/05/23 04:45:16;;;;;;;0.80;0.55;;;10.40;99.00;;;;;;5087391;28;20227;-86
2021/05/23 04:47:45;;;;;;;0.77;0.70;;;10.50;98.60;;;;;;5072722;28;20585;-87
2021/05/23 04:50:13;;;;;;;0.85;0.85;;;10.40;97.60;;;;;;5083023;28;20537;-86
2021/05/23 04:52:40;;;;;;;1.20;1.10;;;10.60;97.90;;;;;;5092812;28;20218;-87
2021/05/23 04:55:09;;;;;;;0.93;0.77;;;10.80;97.80;;;;;;5088582;28;20187;-87
2021/05/23 04:57:37;;;;;;;0.68;0.68;;;10.50;96.90;;;;;;5085480;28;20506;-87
2021/05/23 05:00:05;;;;;;;0.90;0.90;;;10.60;97.60;;;;;;5073976;28;20254;-87
2021/05/23 05:02:33;;;;;;;1.15;0.73;;;10.60;98.40;;;;;;5092392;28;20202;-87
2021/05/23 05:05:03;;;;;;;1.00;1.00;;;10.70;98.40;;;;;;5088179;28;20187;-87
2021/05/23 05:07:30;;;;;;;0.80;0.70;;;10.50;97.30;;;;;;5073552;28;20194;-87
2021/05/23 05:09:58;;;;;;;0.80;0.80;;;10.60;98.00;;;;;;5076226;28;20660;-87
2021/05/23 05:12:25;;;;;;;0.68;0.68;;;10.70;98.20;;;;;;5078701;28;20591;-87
2021/05/23 05:14:52;;;;;;;2.15;1.08;;;10.90;97.80;;;;;;5091636;28;20202;-88
2021/05/23 05:17:20;;;;;;;2.25;0.85;;;10.80;97.60;;;;;;5073357;28;20195;-87
2021/05/23 05:19:47;;;;;;;1.00;1.00;;;11.00;98.10;;;;;;5080204;28;20210;-87
2021/05/23 05:22:16;;;;;;;2.58;0.95;;;10.90;97.70;;;;;;5072809;28;20214;-88
2021/05/23 05:24:45;;;;;;;5.13;1.00;;;11.10;97.10;;;;;;5072909;28;20264;-88
2021/05/23 05:27:13;;;;;;;1.10;1.00;;;11.20;96.60;;;;;;5072617;28;20196;-88
2021/05/23 05:29:40;;;;;;;1.90;1.50;;;11.10;96.30;;;;;;5083670;28;20215;-88
2021/05/23 05:32:07;;;;;;;1.17;0.70;;;11.10;96.30;;;;;;5097685;28;20214;-88
2021/05/23 05:34:34;;;;;;;0.80;0.80;;;11.10;97.00;;;;;;5096775;28;20717;-88
2021/05/23 05:37:02;;;;;;;1.58;1.15;;;10.90;97.10;;;;;;5084338;28;20192;-88
2021/05/23 05:39:30;;;;;;;1.55;1.30;;;11.00;97.50;;;;;;5083499;28;20196;-87
2021/05/23 05:42:00;;;;;;;3.33;1.47;;;11.20;97.60;;;;;;5084551;28;21325;-87
2021/05/23 05:44:27;;;;;;;1.40;1.30;;;11.20;97.60;;;;;;5075897;28;20640;-88
2021/05/23 05:46:54;;;;;;;1.70;1.60;;;11.30;97.80;;;;;;5085628;28;20206;-89
2021/05/23 05:49:21;;;;;;;1.73;1.37;;;11.30;97.60;;;;;;5081346;28;20656;-88
2021/05/23 05:51:49;;;;;;;1.10;1.10;;;11.40;97.50;;;;;;5082802;28;21076;-88
2021/05/23 05:54:16;;;;;;;1.10;1.00;;;11.40;97.50;;;;;;5082302;28;20225;-88
2021/05/23 05:56:44;;;;;;;1.80;1.70;;;11.30;97.00;;;;;;5084357;28;20720;-88
2021/05/23 05:59:10;;;;;;;2.88;1.15;;;11.40;97.40;;;;;;5088765;28;20605;-89
2021/05/23 06:01:37;;;;;;;3.25;1.08;;;11.50;97.40;;;;;;5084216;28;20205;-89
2021/05/23 06:04:04;;;;;;;1.30;1.10;;;11.60;97.60;;;;;;5073122;28;20203;-89
2021/05/23 06:06:31;;;;;;;1.73;0.83;;;11.60;97.70;;;;;;5075507;28;20706;-89
2021/05/23 06:08:57;;;;;;;1.40;1.30;;;11.40;97.00;;;;;;5074012;28;20713;-89
2021/05/23 06:11:24;;;;;;;3.57;0.87;;;11.30;97.30;;;;;;5083152;28;20629;-90
2021/05/23 06:13:51;;;;;;;1.07;1.00;;;11.20;97.40;;;;;;5076448;28;20669;-90
2021/05/23 06:16:18;;;;;;;1.05;0.95;;;11.30;96.80;;;;;;5076147;28;20613;-90
2021/05/23 06:18:45;;;;;;;0.80;0.80;;;11.50;97.00;;;;;;5078503;28;20226;-88
2021/05/23 06:21:12;;;;;;;1.43;1.03;;;11.40;96.30;;;;;;5092186;28;20661;-90
2021/05/23 06:23:39;;;;;;;0.77;0.70;;;11.60;96.80;;;;;;5072718;28;20653;-90
2021/05/23 06:26:12;;;;;;;1.60;0.90;;;11.80;96.30;;;;;;5084476;28;21064;-91
2021/05/23 06:28:39;;;;;;;1.03;0.80;;;11.80;96.10;;;;;;5073138;28;20609;-88
2021/05/23 06:31:07;;;;;;;1.83;0.90;;;11.70;95.60;;;;;;5073755;28;20629;-90
2021/05/23 06:33:33;;;;;;;0.73;0.70;;;11.70;95.40;;;;;;5073119;28;20713;-89
2021/05/23 06:36:00;;;;;;;0.93;0.90;;;11.70;95.30;;;;;;5072864;28;20617;-90
2021/05/23 06:38:27;;;;;;;1.20;1.10;;;11.90;95.50;;;;;;5080267;28;20645;-89
2021/05/23 06:40:56;;;;;;;1.00;0.90;;;11.90;95.20;;;;;;5087783;28;20715;-88
2021/05/23 06:43:22;;;;;;;1.40;1.10;;;12.10;95.60;;;;;;5075863;28;20637;-90
2021/05/23 06:45:55;;;;;;;0.70;0.63;;;12.20;95.30;;;;;;5074630;28;20614;-90
2021/05/23 06:48:23;;;;;;;0.77;0.77;;;11.90;93.00;;;;;;5072484;28;20626;-89
2021/05/23 06:50:51;;;;;;;0.90;0.90;;;11.90;94.20;;;;;;5079646;28;20625;-90
2021/05/23 06:53:40;;;;;;;1.27;1.17;;;12.00;94.40;;;;;;5078507;28;20661;-89
2021/05/23 06:56:08;;;;;;;1.30;1.20;;;12.10;94.20;;;;;;5087436;28;20650;-90
2021/05/23 06:58:34;;;;;;;0.83;0.83;;;12.10;94.40;;;;;;5072807;28;20717;-90
2021/05/23 07:01:03;;;;;;;1.13;0.90;;;12.10;94.50;;;;;;5086353;28;20697;-89
2021/05/23 07:03:31;;;;;;;0.80;0.80;;;12.20;94.30;;;;;;5086420;28;20666;-89
2021/05/23 07:06:01;;;;;;;0.80;0.80;;;12.30;93.30;;;;;;5078028;28;20764;-90
2021/05/23 07:08:28;;;;;;;0.87;0.80;;;12.40;92.80;;;;;;5074939;28;20726;-90
2021/05/23 07:10:55;;;;;;;1.17;0.83;;;11.90;92.00;;;;;;5087399;28;20636;-89
2021/05/23 07:13:23;;;;;;;1.53;1.10;;;12.00;92.80;;;;;;5077270;28;20653;-90
2021/05/23 07:15:51;;;;;;;1.03;0.97;;;12.20;93.90;;;;;;5083204;28;20637;-91
2021/05/23 07:18:19;;;;;;;1.10;0.90;;;12.30;93.50;;;;;;5091636;28;20629;-91
2021/05/23 07:20:47;;;;;;;0.93;0.90;;;12.30;93.20;;;;;;5083025;28;20644;-91
2021/05/23 07:23:21;;;;;;;1.17;1.07;;;12.30;93.60;;;;;;5071574;28;20709;-91
2021/05/23 07:25:50;;;;;;;0.80;0.80;;;12.50;93.50;;;;;;5079472;28;20632;-88
2021/05/23 07:28:17;;;;;;;0.90;0.80;;;12.90;93.00;;;;;;5078717;28;20631;-90
2021/05/23 07:30:44;;;;;;;1.30;0.83;;;12.70;91.20;;;;;;5090736;28;20628;-91
2021/05/23 07:33:14;;;;;;;2.00;1.20;;;12.90;92.00;;;;;;5083244;28;21106;-90
2021/05/23 07:35:41;;;;;;;2.87;0.87;;;13.20;91.90;;;;;;5080373;28;21199;-90
2021/05/23 07:38:08;;;;;;;1.50;1.00;;;13.20;90.20;;;;;;5091805;28;21073;-89
2021/05/23 07:40:49;;;;;;;1.10;0.80;;;13.30;89.90;;;;;;5083985;28;20680;-92
2021/05/23 07:43:15;;;;;;;1.77;0.83;;;13.20;89.90;;;;;;5079089;28;20667;-86
2021/05/23 07:45:42;;;;;;;2.93;0.70;;;12.70;92.20;;;;;;5087840;28;20961;-83
2021/05/23 07:48:09;;;;;;;4.00;1.33;;;11.60;92.90;;;;;;5071569;28;20694;-85
2021/05/23 07:50:36;;;;;;;0.90;0.90;;;10.70;93.60;;;;;;5087483;28;20616;-85
2021/05/23 07:53:03;;;;;;;3.20;0.77;;;10.40;96.10;;;;;;5075096;28;20644;-84
2021/05/23 07:55:30;;;;;;;2.70;1.00;;;10.30;97.90;;;;;;5088406;28;20610;-84
2021/05/23 07:57:57;;;;;;;0.80;0.80;;;10.40;99.20;;;;;;5074132;28;20252;-84
2021/05/23 08:00:23;;;;;;;1.88;1.17;;;10.20;98.60;;;;;;5088992;28;20634;-84
2021/05/23 08:02:49;;;;;;;1.08;0.98;;;10.20;99.80;;;;;;5087486;28;20261;-84
2021/05/23 08:05:16;;;;;;;1.92;0.93;;;10.00;98.40;;;;;;5091556;28;20597;-84
2021/05/23 08:07:42;;;;;;;1.13;1.02;;;10.10;99.60;;;;;;5084227;28;20191;-86
2021/05/23 08:10:10;;;;;;;0.70;0.70;;;10.00;98.80;;;;;;5081912;28;20195;-84
2021/05/23 08:12:38;;;;;;;0.65;0.65;;;9.90;99.90;;;;;;5085437;28;20309;-85
2021/05/23 08:15:06;;;;;;;0.80;0.80;;;9.90;99.90;;;;;;5092524;28;20660;-85
2021/05/23 08:17:33;;;;;;;1.20;0.93;;;10.00;99.90;;;;;;5074008;28;20573;-85
2021/05/23 08:19:59;;;;;;;1.10;0.82;;;10.20;99.90;;;;;;5073048;28;20199;-86
2021/05/23 08:22:25;;;;;;;1.40;1.30;;;10.40;99.90;;;;;;5074618;28;20290;-86
2021/05/23 08:24:52;;;;;;;1.95;0.70;;;10.60;99.90;;;;;;5073641;28;20195;-88
2021/05/23 08:27:19;;;;;;;1.25;1.15;;;10.80;98.80;;;;;;5074352;28;20192;-86
2021/05/23 08:29:47;;;;;;;1.10;1.10;;;11.10;99.90;;;;;;5073877;28;20219;-88
2021/05/23 08:32:16;;;;;;;1.37;1.00;;;11.30;99.90;;;;;;5073520;28;20572;-87
2021/05/23 08:34:42;;;;;;;5.30;1.07;;;11.60;99.90;;;;;;5072316;28;20617;-87
2021/05/23 08:37:23;;;;;;;1.43;1.33;;;11.80;98.80;;;;;;5068019;28;20653;-89
2021/05/23 08:39:50;;;;;;;2.57;1.10;;;11.80;96.80;;;;;;5076069;28;20644;-87
2021/05/23 08:42:17;;;;;;;1.63;1.10;;;11.90;97.30;;;;;;5077675;28;20629;-87
2021/05/23 08:44:44;;;;;;;1.47;1.10;;;11.80;96.50;;;;;;5078072;28;21164;-88
2021/05/23 08:47:13;;;;;;;3.93;1.13;;;11.90;97.50;;;;;;5084992;28;20625;-88
2021/05/23 08:49:40;;;;;;;1.00;1.00;;;12.10;96.00;;;;;;5090805;28;21204;-89
2021/05/23 08:52:06;;;;;;;1.00;1.00;;;12.40;94.40;;;;;;5084051;28;20617;-90
2021/05/23 08:54:40;;;;;;;3.37;1.17;;;12.60;93.30;;;;;;5091285;28;20631;-91
2021/05/23 08:57:09;;;;;;;2.43;2.10;;;12.80;92.00;;;;;;5088787;28;20978;-90
2021/05/23 08:59:37;;;;;;;1.80;1.23;;;12.70;90.90;;;;;;5094509;28;21231;-91
2021/05/23 09:02:05;;;;;;;2.23;1.37;;;12.70;90.80;;;;;;5081852;28;20622;-92
2021/05/23 09:04:34;;;;;;;2.60;1.90;;;12.80;91.20;;;;;;5093377;28;20628;-92
2021/05/23 09:07:05;;;;;;;1.97;1.10;;;12.90;90.50;;;;;;5083262;28;21186;-89
2021/05/23 09:09:47;;;;;;;1.13;0.87;;;13.00;89.50;;;;;;5094733;28;20656;-92
2021/05/23 09:12:15;;;;;;;2.63;1.77;;;13.30;86.40;;;;;;5077300;28;20988;-91
2021/05/23 09:14:45;;;;;;;2.13;1.20;;;13.50;89.60;;;;;;5091687;28;21181;-88
2021/05/23 09:17:24;;;;;;;2.13;1.17;;;13.70;86.40;;;;;;5092875;28;20617;-90
2021/05/23 09:19:54;;;;;;;1.00;0.93;;;14.10;86.60;;;;;;5089073;28;21260;-92
2021/05/23 09:22:43;;;;;;;0.90;0.70;;;14.50;86.20;;;;;;5080995;28;20693;-92
2021/05/23 09:25:41;;;;;;;1.70;1.27;;;14.50;80.20;;;;;;5081360;28;20627;-92
2021/05/23 09:28:30;;;;;;;1.57;0.70;;;14.40;79.10;;;;;;5094239;28;20635;-91
2021/05/23 09:31:13;;;;;;;3.13;0.80;;;14.30;77.70;;;;;;5081537;28;20624;-92
2021/05/23 09:33:51;;;;;;;0.73;0.73;;;14.40;79.50;;;;;;5084512;28;21011;-90
2021/05/23 09:36:29;;;;;;;1.90;1.00;;;14.30;77.90;;;;;;5091611;28;21017;-92
2021/05/23 09:38:58;;;;;;;3.90;0.90;;;13.80;76.40;;;;;;5091556;28;20632;-87
2021/05/23 09:41:26;;;;;;;1.23;0.83;;;13.80;80.30;;;;;;5086965;28;20686;-88
2021/05/23 09:44:17;;;;;;;1.30;0.50;;;13.30;82.70;;;;;;5086636;28;20668;-87
2021/05/23 09:46:52;;;;;;;3.70;0.97;;;12.40;87.30;;;;;;5083601;28;20606;-88
2021/05/23 09:49:18;;;;;;;1.00;0.70;;;11.90;91.80;;;;;;5088480;28;20609;-88
2021/05/23 09:51:57;;;;;;;0.70;0.70;;;11.80;92.00;;;;;;5085722;28;21179;-90
2021/05/23 09:54:25;;;;;;;1.73;0.87;;;11.80;91.80;;;;;;5081548;28;20721;-89
2021/05/23 09:56:52;;;;;;;2.73;0.80;;;11.80;91.00;;;;;;5092337;28;20635;-91
2021/05/23 09:59:21;;;;;;;1.23;0.93;;;12.00;92.60;;;;;;5092102;28;20624;-92
2021/05/23 10:02:05;;;;;;;1.17;0.77;;;12.10;91.50;;;;;;5074501;28;20736;-93
2021/05/23 10:04:38;;;;;;;0.80;0.80;;;12.30;93.10;;;;;;5091065;28;20769;-93
2021/05/23 10:07:10;;;;;;;1.60;1.50;;;12.60;92.30;;;;;;5082980;28;20725;-92
2021/05/23 10:09:41;;;;;;;6.70;2.57;;;12.70;91.00;;;;;;5091710;28;20720;-92
2021/05/23 10:12:11;;;;;;;2.80;1.20;;;12.70;89.80;;;;;;5078183;28;20665;-91
2021/05/23 10:14:39;;;;;;;2.40;2.20;;;12.90;90.50;;;;;;5082300;28;20676;-90
2021/05/23 10:17:08;;;;;;;1.17;0.93;;;13.20;90.00;;;;;;5085038;28;20624;-93
2021/05/23 10:19:35;;;;;;;1.80;1.50;;;13.60;90.40;;;;;;5085762;28;20654;-89
2021/05/23 10:22:06;;;;;;;1.20;1.00;;;13.80;85.20;;;;;;5083653;28;20626;-93
2021/05/23 10:24:37;;;;;;;0.90;0.90;;;14.00;88.40;;;;;;5083414;28;20621;-89
2021/05/23 10:27:06;;;;;;;0.90;0.77;;;14.20;82.00;;;;;;5079539;28;20674;-89
2021/05/23 10:29:36;;;;;;;2.40;1.27;;;14.50;85.20;;;;;;5086480;28;20614;-92
2021/05/23 10:32:08;;;;;;;0.87;0.87;;;14.50;75.00;;;;;;5083072;28;21028;-92
2021/05/23 10:34:42;;;;;;;3.03;1.23;;;14.70;77.90;;;;;;5076692;28;20653;-90
2021/05/23 10:37:09;;;;;;;1.10;0.97;;;15.00;79.20;;;;;;5081904;28;20617;-90
2021/05/23 10:39:39;;;;;;;0.90;0.80;;;15.20;76.70;;;;;;5083411;28;20638;-89
2021/05/23 10:42:09;;;;;;;1.23;0.80;;;15.40;72.30;;;;;;5091998;28;20642;-91
2021/05/23 10:44:44;;;;;;;0.60;0.60;;;15.30;67.40;;;;;;5081337;28;21209;-90
2021/05/23 10:47:13;;;;;;;0.90;0.80;;;15.40;67.10;;;;;;5082786;28;20723;-88
2021/05/23 10:49:54;;;;;;;1.20;1.10;;;15.60;69.00;;;;;;5079836;28;20627;-90
2021/05/23 10:52:22;;;;;;;1.00;0.73;;;15.70;70.30;;;;;;5079382;28;20620;-90
2021/05/23 10:55:02;;;;;;;1.07;0.80;;;16.00;67.20;;;;;;5086690;28;20652;-89
2021/05/23 10:57:44;;;;;;;1.00;0.80;;;15.90;64.30;;;;;;5081720;28;20629;-90
2021/05/23 11:00:21;;;;;;;0.80;0.80;;;15.70;64.10;;;;;;5075946;28;20628;-91
2021/05/23 11:02:49;;;;;;;0.60;0.60;;;15.40;65.50;;;;;;5090624;28;20710;-92
2021/05/23 11:05:21;;;;;;;1.37;1.00;;;15.10;63.60;;;;;;5090537;28;20655;-91
2021/05/23 11:07:59;;;;;;;0.93;0.90;;;15.00;63.80;;;;;;5089204;28;20741;-90
2021/05/23 11:10:31;;;;;;;0.97;0.80;;;14.90;65.60;;;;;;5083475;28;20659;-91
2021/05/23 11:13:00;;;;;;;1.43;1.00;;;15.00;67.90;;;;;;5083863;28;20666;-90
2021/05/23 11:15:39;;;;;;;1.50;0.73;;;14.90;68.20;;;;;;5098284;28;20617;-89
2021/05/23 11:18:15;;;;;;;1.40;1.10;;;15.20;71.70;;;;;;5089541;28;20619;-90
2021/05/23 11:20:54;;;;;;;2.33;0.70;;;15.20;68.20;;;;;;5090239;28;20645;-90
2021/05/23 11:23:21;;;;;;;2.03;1.13;;;15.20;67.70;;;;;;5085173;28;20728;-90
2021/05/23 11:25:49;;;;;;;0.70;0.60;;;15.40;66.50;;;;;;5083447;28;20735;-89
2021/05/23 11:28:20;;;;;;;0.70;0.70;;;15.70;64.80;;;;;;5074510;28;20620;-89
2021/05/23 11:30:59;;;;;;;0.67;0.60;;;16.20;69.10;;;;;;5090051;28;20708;-93
2021/05/23 11:33:26;;;;;;;1.50;0.50;;;16.20;66.30;;;;;;5082576;28;20653;-89
2021/05/23 11:39:26;;;;;;;0.90;0.70;;;16.90;61.90;;;;;;5080074;28;20629;-90
2021/05/23 11:41:53;;;;;;;0.50;0.50;;;16.80;58.50;;;;;;5084715;28;20616;-90
2021/05/23 11:44:20;;;;;;;1.00;1.00;;;17.40;58.70;;;;;;5089532;28;20627;-89
2021/05/23 11:46:50;;;;;;;0.70;0.57;;;17.40;58.30;;;;;;5089456;28;20625;-88
2021/05/23 11:49:21;;;;;;;1.20;1.10;;;17.90;56.60;;;;;;5076032;28;20638;-89
2021/05/23 11:51:48;;;;;;;3.03;1.00;;;18.80;58.40;;;;;;5083107;28;20630;-90
2021/05/23 11:54:17;;;;;;;3.03;1.40;;;19.10;55.80;;;;;;5089477;28;20674;-91
2021/05/23 11:56:43;;;;;;;1.57;0.80;;;19.80;53.40;;;;;;5089377;28;21228;-91
2021/05/23 11:59:11;;;;;;;0.93;0.40;;;20.30;52.60;;;;;;5090067;28;20625;-88
2021/05/23 12:01:46;;;;;;;1.80;0.60;;;22.40;52.70;;;;;;5073319;28;21572;-88
2021/05/23 12:04:15;;;;;;;0.70;0.40;;;24.20;49.20;;;;;;5088106;28;21248;-88
2021/05/23 12:06:43;;;;;;;0.70;0.63;;;26.10;47.50;;;;;;5086133;28;21248;-90
2021/05/23 12:09:14;;;;;;;0.90;0.70;;;27.60;42.60;;;;;;5085820;28;20624;-92
2021/05/23 12:11:45;;;;;;;0.43;0.43;;;26.50;41.40;;;;;;5083522;28;20614;-90
2021/05/23 12:14:32;;;;;;;0.70;0.70;;;26.50;41.80;;;;;;5083092;28;21248;-90
2021/05/23 12:17:02;;;;;;;0.70;0.60;;;29.10;39.60;;;;;;5088740;28;21200;-91
2021/05/23 12:19:47;;;;;;;0.70;0.70;;;28.90;35.00;;;;;;5090233;28;21063;-90
2021/05/23 12:22:17;;;;;;;0.83;0.50;;;28.60;36.30;;;;;;5070601;28;21044;-89
2021/05/23 12:24:44;;;;;;;0.53;0.53;;;27.60;37.30;;;;;;5085441;28;21058;-90
2021/05/23 12:27:15;;;;;;;1.53;0.50;;;28.00;36.80;;;;;;5069261;28;20621;-90
2021/05/23 12:29:42;;;;;;;0.87;0.53;;;26.50;36.90;;;;;;5085804;28;20992;-90
2021/05/23 12:32:09;;;;;;;1.73;0.43;;;26.40;37.80;;;;;;5087163;28;20727;-91
2021/05/23 12:34:42;;;;;;;0.60;0.60;;;27.60;37.00;;;;;;5070444;28;20692;-90
2021/05/23 12:37:09;;;;;;;1.00;0.60;;;27.20;37.40;;;;;;5070395;28;20632;-90
2021/05/23 12:39:35;;;;;;;1.30;0.70;;;25.10;38.80;;;;;;5093110;28;20609;-89
2021/05/23 12:42:04;;;;;;;0.60;0.60;;;23.30;40.80;;;;;;5096203;28;20622;-90
2021/05/23 12:44:32;;;;;;;0.63;0.60;;;22.90;42.50;;;;;;5072758;28;20633;-90
2021/05/23 12:47:10;;;;;;;0.97;0.50;;;21.70;43.50;;;;;;5072547;28;21085;-90
2021/05/23 12:49:44;;;;;;;2.80;0.80;;;21.30;42.80;;;;;;5072861;28;20635;-90
2021/05/23 12:52:15;;;;;;;1.17;0.80;;;20.30;43.50;;;;;;5073490;28;21281;-89
2021/05/23 12:54:42;;;;;;;1.00;1.00;;;19.30;43.50;;;;;;5072121;28;20757;-90
2021/05/23 12:57:12;;;;;;;1.90;1.80;;;19.00;45.60;;;;;;5072191;28;20621;-89
2021/05/23 12:59:39;;;;;;;1.80;1.70;;;18.60;47.10;;;;;;5072721;28;20633;-88
2021/05/23 13:02:07;;;;;;;1.37;1.27;;;18.80;48.00;;;;;;5072904;28;20656;-90
2021/05/23 13:04:35;;;;;;;1.00;0.70;;;18.80;47.30;;;;;;5072263;28;20656;-89